createdAt,value
2022-10-28T00:01:32.812Z,100630.87
2022-10-28T00:04:34.787Z,100626.39
2022-10-28T00:07:36.537Z,100626.91
2022-10-28T00:10:38.159Z,100628.50
2022-10-28T00:13:40.999Z,100630.24
2022-10-28T00:16:42.905Z,100626.09
2022-10-28T00:19:44.710Z,100627.27
2022-10-28T00:22:46.618Z,100622.34
2022-10-28T00:25:48.344Z,100625.81
2022-10-28T00:28:52.943Z,100626.13
2022-10-28T00:31:55.897Z,100626.98
2022-10-28T00:34:58.145Z,100630.80
2022-10-28T00:37:59.954Z,100632.55
2022-10-28T00:41:01.695Z,100623.95
2022-10-28T00:44:42.353Z,100621.50
2022-10-28T00:47:52.706Z,100619.41
2022-10-28T00:50:55.280Z,100612.77
2022-10-28T00:53:57.375Z,100610.83
2022-10-28T00:57:00.505Z,100607.98
2022-10-28T01:00:04.729Z,100601.15
2022-10-28T01:03:06.821Z,100599.48
2022-10-28T01:06:08.842Z,100599.34
2022-10-28T01:09:10.631Z,100602.27
2022-10-28T01:12:40.058Z,100598.86
2022-10-28T01:16:16.926Z,100597.28
2022-10-28T01:19:40.246Z,100586.77
2022-10-28T01:22:54.269Z,100585.73
2022-10-28T01:26:33.983Z,100583.89
2022-10-28T01:30:11.198Z,100581.67
2022-10-28T01:33:34.915Z,100577.64
2022-10-28T01:36:51.714Z,100576.70
2022-10-28T01:40:00.014Z,100571.84
2022-10-28T01:43:46.341Z,100569.53
2022-10-28T01:46:54.815Z,100564.04
2022-10-28T01:50:04.718Z,100560.48
2022-10-28T01:53:10.844Z,100552.47
2022-10-28T01:56:16.657Z,100553.06
2022-10-28T01:59:22.790Z,100548.20
2022-10-28T02:02:25.109Z,100551.54
2022-10-28T02:05:41.077Z,100555.16
2022-10-28T02:08:42.888Z,100552.73
2022-10-28T02:11:53.778Z,100555.23
2022-10-28T02:15:16.985Z,100550.64
2022-10-28T02:18:40.276Z,100542.36
2022-10-28T02:21:57.495Z,100537.88
2022-10-28T02:25:22.450Z,100537.71
2022-10-28T02:28:45.060Z,100533.53
2022-10-28T02:31:54.562Z,100532.42
2022-10-28T02:34:58.878Z,100531.98
2022-10-28T02:38:03.747Z,100527.38
2022-10-28T02:41:17.732Z,100519.60
2022-10-28T02:44:25.270Z,100517.92
2022-10-28T02:47:29.247Z,100511.25
2022-10-28T02:50:34.509Z,100509.61
2022-10-28T02:53:54.888Z,100511.78
2022-10-28T02:57:01.949Z,100511.54
2022-10-28T03:00:10.319Z,100512.44
2022-10-28T03:03:12.889Z,100513.60
2022-10-28T03:06:14.691Z,100515.88
2022-10-28T03:09:16.934Z,100516.09
2022-10-28T03:12:18.722Z,100522.20
2022-10-28T03:15:20.663Z,100521.08
2022-10-28T03:18:22.443Z,100524.54
2022-10-28T03:21:24.232Z,100519.45
2022-10-28T03:24:27.266Z,100512.20
2022-10-28T03:27:29.611Z,100514.92
2022-10-28T03:30:31.339Z,100504.77
2022-10-28T03:33:33.033Z,100505.40
2022-10-28T03:36:34.822Z,100506.89
2022-10-28T03:39:36.417Z,100504.93
2022-10-28T03:42:41.366Z,100501.33
2022-10-28T03:45:43.417Z,100492.33
2022-10-28T03:48:45.168Z,100491.10
2022-10-28T03:51:46.801Z,100488.51
2022-10-28T03:54:48.598Z,100487.04
2022-10-28T03:57:50.240Z,100488.27
2022-10-28T04:00:53.035Z,100491.77
2022-10-28T04:03:54.723Z,100488.98
2022-10-28T04:06:56.354Z,100487.46
2022-10-28T04:09:58.224Z,100489.91
2022-10-28T04:13:04.231Z,100492.17
2022-10-28T04:16:06.455Z,100495.29
2022-10-28T04:19:08.496Z,100494.89
2022-10-28T04:22:10.290Z,100491.25
2022-10-28T04:25:12.135Z,100492.59
2022-10-28T04:28:14.296Z,100482.13
2022-10-28T04:31:16.186Z,100475.32
2022-10-28T04:34:17.920Z,100470.48
2022-10-28T04:37:20.763Z,100472.23
2022-10-28T04:40:22.618Z,100468.41
2022-10-28T04:43:24.394Z,100468.69
2022-10-28T04:46:26.273Z,100461.35
2022-10-28T04:49:28.203Z,100458.92
2022-10-28T04:52:30.158Z,100460.55
2022-10-28T04:55:32.047Z,100456.63
2022-10-28T04:58:33.768Z,100455.91
2022-10-28T05:01:35.553Z,100464.89
2022-10-28T05:04:37.331Z,100468.41
2022-10-28T05:07:39.099Z,100458.66
2022-10-28T05:10:40.845Z,100456.63
2022-10-28T05:13:42.652Z,100465.24
2022-10-28T05:16:44.421Z,100469.72
2022-10-28T05:19:46.215Z,100466.30
2022-10-28T05:22:50.391Z,100459.81
2022-10-28T05:25:52.614Z,100461.95
2022-10-28T05:28:54.468Z,100472.31
2022-10-28T05:31:56.329Z,100476.41
2022-10-28T05:34:58.221Z,100470.88
2022-10-28T05:38:00.128Z,100468.31
2022-10-28T05:41:02.069Z,100471.44
2022-10-28T05:44:03.971Z,100472.15
2022-10-28T05:47:05.719Z,100468.45
2022-10-28T05:50:07.746Z,100468.17
2022-10-28T05:53:09.467Z,100467.80
2022-10-28T05:56:11.146Z,100462.66
2022-10-28T05:59:12.862Z,100464.68
2022-10-28T06:02:15.193Z,100467.07
2022-10-28T06:05:17.181Z,100466.38
2022-10-28T06:08:19.079Z,100469.58
2022-10-28T06:11:19.178Z,100467.89
2022-10-28T06:14:20.736Z,100467.64
2022-10-28T06:17:22.670Z,100465.69
2022-10-28T06:20:24.486Z,100468.73
2022-10-28T06:23:27.687Z,100461.77
2022-10-28T06:26:29.356Z,100462.65
2022-10-28T06:29:32.305Z,100464.21
2022-10-28T06:32:33.953Z,100464.14
2022-10-28T06:35:35.573Z,100466.85
2022-10-28T06:38:37.393Z,100466.52
2022-10-28T06:41:39.015Z,100457.41
2022-10-28T06:44:40.683Z,100449.42
2022-10-28T06:47:43.779Z,100450.10
2022-10-28T06:50:45.644Z,100449.27
2022-10-28T06:53:50.672Z,100451.28
2022-10-28T06:56:52.317Z,100452.45
2022-10-28T06:59:53.960Z,100455.10
2022-10-28T07:02:56.995Z,100462.90
2022-10-28T07:05:59.471Z,100463.35
2022-10-28T07:09:01.242Z,100469.60
2022-10-28T07:12:05.023Z,100471.26
2022-10-28T07:15:08.149Z,100465.37
2022-10-28T07:18:10.027Z,100475.00
2022-10-28T07:21:14.044Z,100472.61
2022-10-28T07:24:15.694Z,100469.30
2022-10-28T07:27:17.420Z,100473.02
2022-10-28T07:30:19.004Z,100474.80
2022-10-28T07:33:20.930Z,100477.45
2022-10-28T07:36:22.672Z,100475.73
2022-10-28T07:39:24.688Z,100469.24
2022-10-28T07:42:26.407Z,100459.23
2022-10-28T07:45:28.332Z,100463.36
2022-10-28T07:48:29.971Z,100460.88
2022-10-28T07:51:31.801Z,100456.85
2022-10-28T07:54:33.392Z,100449.40
2022-10-28T07:57:35.345Z,100453.13
2022-10-28T08:00:37.180Z,100458.03
2022-10-28T08:03:39.346Z,100459.10
2022-10-28T08:06:41.282Z,100462.13
2022-10-28T08:09:43.049Z,100458.39
2022-10-28T08:12:46.308Z,100455.23
2022-10-28T08:15:55.127Z,100459.73
2022-10-28T08:19:01.134Z,100463.30
2022-10-28T08:22:06.881Z,100452.59
2022-10-28T08:25:09.286Z,100444.19
2022-10-28T08:28:11.038Z,100443.49
2022-10-28T08:31:12.714Z,100439.02
2022-10-28T08:34:14.511Z,100439.32
2022-10-28T08:37:16.419Z,100436.63
2022-10-28T08:40:20.882Z,100434.44
2022-10-28T08:44:00.887Z,100430.54
2022-10-28T08:47:14.792Z,100426.29
2022-10-28T08:50:18.424Z,100422.67
2022-10-28T08:53:26.056Z,100422.85
2022-10-28T08:56:32.043Z,100422.55
2022-10-28T08:59:39.371Z,100417.87
2022-10-28T09:03:10.023Z,100416.44
2022-10-28T09:06:11.826Z,100413.60
2022-10-28T09:09:19.656Z,100412.79
2022-10-28T09:12:34.340Z,100413.43
2022-10-28T09:15:56.022Z,100406.88
2022-10-28T09:18:59.233Z,100402.93
2022-10-28T09:22:28.714Z,100402.61
2022-10-28T09:25:48.716Z,100402.95
2022-10-28T09:29:21.177Z,100404.46
2022-10-28T09:32:43.854Z,100402.27
2022-10-28T09:35:47.458Z,100403.28
2022-10-28T09:38:51.879Z,100402.09
2022-10-28T09:41:53.971Z,100398.59
2022-10-28T09:44:59.888Z,100397.63
2022-10-28T09:48:05.735Z,100389.92
2022-10-28T09:51:27.958Z,100388.06
2022-10-28T09:54:35.439Z,100386.95
2022-10-28T09:57:37.096Z,100385.42
2022-10-28T10:00:39.661Z,100384.52
2022-10-28T10:03:41.908Z,100384.40
2022-10-28T10:06:48.550Z,100380.60
2022-10-28T10:09:50.498Z,100377.60
2022-10-28T10:12:55.958Z,100375.52
2022-10-28T10:16:02.536Z,100379.27
2022-10-28T10:19:06.649Z,100379.05
2022-10-28T10:22:08.359Z,100379.02
2022-10-28T10:25:18.971Z,100375.90
2022-10-28T10:28:21.538Z,100370.05
2022-10-28T10:31:26.182Z,100363.39
2022-10-28T10:34:30.143Z,100364.44
2022-10-28T10:37:34.758Z,100365.98
2022-10-28T10:40:52.907Z,100368.20
2022-10-28T10:43:54.607Z,100365.61
2022-10-28T10:47:16.534Z,100361.60
2022-10-28T10:50:23.170Z,100359.20
2022-10-28T10:53:28.236Z,100356.44
2022-10-28T10:56:31.606Z,100355.52
2022-10-28T10:59:34.994Z,100351.94
2022-10-28T11:02:39.810Z,100346.17
2022-10-28T11:05:55.146Z,100346.20
2022-10-28T11:09:17.611Z,100347.36
2022-10-28T11:12:31.967Z,100349.38
2022-10-28T11:15:33.695Z,100344.40
2022-10-28T11:18:43.959Z,100343.08
2022-10-28T11:21:55.388Z,100347.31
2022-10-28T11:25:15.306Z,100348.02
2022-10-28T11:28:30.027Z,100349.04
2022-10-28T11:31:48.266Z,100348.31
2022-10-28T11:35:20.588Z,100338.61
2022-10-28T11:38:45.863Z,100330.65
2022-10-28T11:42:00.852Z,100333.84
2022-10-28T11:45:26.694Z,100326.23
2022-10-28T11:48:47.100Z,100326.35
2022-10-28T11:52:00.528Z,100322.72
2022-10-28T11:55:31.459Z,100318.01
2022-10-28T11:58:53.247Z,100321.05
2022-10-28T12:02:36.860Z,100323.96
2022-10-28T12:05:51.216Z,100320.89
2022-10-28T12:09:01.625Z,100318.09
2022-10-28T12:12:06.003Z,100311.80
2022-10-28T12:15:39.154Z,100308.71
2022-10-28T12:19:16.356Z,100301.16
2022-10-28T12:22:34.152Z,100295.27
2022-10-28T12:25:36.885Z,100291.17
2022-10-28T12:28:43.990Z,100288.59
2022-10-28T12:31:49.199Z,100287.91
2022-10-28T12:34:56.434Z,100288.44
2022-10-28T12:38:02.792Z,100284.81
2022-10-28T12:41:16.215Z,100279.42
2022-10-28T12:44:20.448Z,100274.31
2022-10-28T12:47:25.754Z,100275.17
2022-10-28T12:50:48.798Z,100276.52
2022-10-28T12:54:17.273Z,100270.59
2022-10-28T12:57:21.411Z,100270.99
2022-10-28T13:00:28.702Z,100270.73
2022-10-28T13:03:30.464Z,100272.00
2022-10-28T13:09:52.447Z,100266.17
2022-10-28T13:13:14.566Z,100262.39
2022-10-28T13:16:53.651Z,100261.08
2022-10-28T13:20:03.296Z,100257.64
2022-10-28T13:23:33.361Z,100254.95
2022-10-28T13:26:36.825Z,100249.77
2022-10-28T13:29:40.551Z,100248.66
2022-10-28T13:32:42.689Z,100252.35
2022-10-28T13:35:44.630Z,100246.61
2022-10-28T13:39:00.806Z,100245.30
2022-10-28T13:42:19.581Z,100245.20
2022-10-28T13:45:44.559Z,100241.90
2022-10-28T13:48:46.793Z,100239.74
2022-10-28T13:51:51.342Z,100236.52
2022-10-28T13:54:55.149Z,100238.58
2022-10-28T13:58:23.587Z,100237.59
2022-10-28T14:01:56.529Z,100237.68
2022-10-28T14:05:11.316Z,100236.50
2022-10-28T14:08:28.458Z,100238.05
2022-10-28T14:11:32.642Z,100235.35
2022-10-28T14:14:34.377Z,100236.98
2022-10-28T14:17:41.188Z,100234.05
2022-10-28T14:20:48.763Z,100234.41
2022-10-28T14:24:07.460Z,100233.67
2022-10-28T14:27:09.430Z,100230.83
2022-10-28T14:30:16.717Z,100230.64
2022-10-28T14:33:22.203Z,100233.46
2022-10-28T14:36:53.327Z,100232.66
2022-10-28T14:40:07.816Z,100234.89
2022-10-28T14:43:30.620Z,100234.40
2022-10-28T14:46:39.454Z,100231.89
2022-10-28T14:49:42.051Z,100234.91
2022-10-28T14:52:44.382Z,100230.50
2022-10-28T14:55:47.837Z,100229.34
2022-10-28T14:58:50.364Z,100225.30
2022-10-28T15:02:17.500Z,100225.03
2022-10-28T15:05:21.348Z,100224.75
2022-10-28T15:08:24.748Z,100230.55
2022-10-28T15:11:26.462Z,100227.41
2022-10-28T15:14:33.569Z,100230.33
2022-10-28T15:17:42.491Z,100234.50
2022-10-28T15:20:44.142Z,100231.36
2022-10-28T15:23:47.479Z,100229.33
2022-10-28T15:26:54.502Z,100224.59
2022-10-28T15:29:56.338Z,100226.78
2022-10-28T15:33:26.984Z,100224.45
2022-10-28T15:36:28.799Z,100226.52
2022-10-28T15:39:30.491Z,100231.95
2022-10-28T15:43:01.163Z,100230.23
2022-10-28T15:46:10.919Z,100231.63
2022-10-28T15:49:37.713Z,100232.26
2022-10-28T15:52:52.403Z,100230.33
2022-10-28T15:56:17.158Z,100229.76
2022-10-28T15:59:23.808Z,100224.17
2022-10-28T16:02:42.417Z,100224.63
2022-10-28T16:05:45.434Z,100223.53
2022-10-28T16:08:47.792Z,100223.65
2022-10-28T16:11:51.865Z,100224.59
2022-10-28T16:14:55.377Z,100232.33
2022-10-28T16:17:57.397Z,100232.98
2022-10-28T16:20:59.854Z,100236.90
2022-10-28T16:24:02.937Z,100236.83
2022-10-28T16:27:21.135Z,100240.00
2022-10-28T16:33:37.355Z,100241.98
2022-10-28T16:36:39.049Z,100245.64
2022-10-28T16:39:40.658Z,100246.86
2022-10-28T16:42:43.161Z,100250.42
2022-10-28T16:45:44.740Z,100250.78
2022-10-28T16:48:46.716Z,100255.54
2022-10-28T16:51:48.383Z,100250.59
2022-10-28T16:54:51.068Z,100251.86
2022-10-28T16:57:52.994Z,100244.37
2022-10-28T17:00:55.891Z,100243.71
2022-10-28T17:03:57.533Z,100242.60
2022-10-28T17:06:59.308Z,100241.99
2022-10-28T17:10:00.995Z,100247.25
2022-10-28T17:13:03.305Z,100248.17
2022-10-28T17:16:05.328Z,100247.27
2022-10-28T17:19:06.980Z,100245.27
2022-10-28T17:22:10.291Z,100242.80
2022-10-28T17:25:12.427Z,100242.60
2022-10-28T17:28:14.017Z,100237.88
2022-10-28T17:31:19.217Z,100240.14
2022-10-28T17:34:24.036Z,100243.98
2022-10-28T17:37:25.774Z,100251.88
2022-10-28T17:40:27.457Z,100250.00
2022-10-28T17:43:29.079Z,100253.30
2022-10-28T17:46:31.486Z,100253.33
2022-10-28T17:49:34.395Z,100252.66
2022-10-28T17:52:38.523Z,100248.80
2022-10-28T17:55:42.124Z,100247.58
2022-10-28T17:58:44.041Z,100247.57
2022-10-28T18:01:45.711Z,100245.05
2022-10-28T18:04:47.665Z,100242.08
2022-10-28T18:07:49.331Z,100243.11
2022-10-28T18:10:55.248Z,100241.98
2022-10-28T18:13:57.076Z,100245.84
2022-10-28T18:16:58.776Z,100244.38
2022-10-28T18:20:02.170Z,100241.49
2022-10-28T18:23:04.137Z,100233.40
2022-10-28T18:26:07.981Z,100227.97
2022-10-28T18:29:10.204Z,100223.65
2022-10-28T18:32:12.134Z,100222.83
2022-10-28T18:35:13.786Z,100222.41
2022-10-28T18:38:15.628Z,100221.55
2022-10-28T18:41:22.268Z,100221.19
2022-10-28T18:44:31.643Z,100218.59
2022-10-28T18:47:34.506Z,100216.77
2022-10-28T18:50:36.136Z,100213.80
2022-10-28T18:53:46.412Z,100215.25
2022-10-28T18:56:49.186Z,100213.84
2022-10-28T19:00:17.544Z,100214.56
2022-10-28T19:03:20.608Z,100218.40
2022-10-28T19:06:23.031Z,100212.71
2022-10-28T19:09:24.623Z,100218.21
2022-10-28T19:12:26.332Z,100219.29
2022-10-28T19:15:28.120Z,100219.95
2022-10-28T19:18:30.392Z,100223.38
2022-10-28T19:21:32.176Z,100222.58
2022-10-28T19:24:34.530Z,100220.92
2022-10-28T19:27:36.189Z,100223.93
2022-10-28T19:30:37.836Z,100220.11
2022-10-28T19:33:39.636Z,100219.76
2022-10-28T19:36:41.287Z,100223.02
2022-10-28T19:39:42.893Z,100226.47
2022-10-28T19:42:44.617Z,100226.58
2022-10-28T19:45:46.425Z,100230.81
2022-10-28T19:48:50.073Z,100230.92
2022-10-28T19:51:51.681Z,100233.52
2022-10-28T19:54:53.420Z,100233.58
2022-10-28T19:57:55.857Z,100234.31
2022-10-28T20:01:03.525Z,100229.98
2022-10-28T20:04:05.642Z,100230.48
2022-10-28T20:10:28.383Z,100227.30
2022-10-28T20:13:30.302Z,100224.34
2022-10-28T20:16:32.975Z,100222.45
2022-10-28T20:19:34.753Z,100222.59
2022-10-28T20:22:41.318Z,100228.16
2022-10-28T20:25:51.804Z,100230.80
2022-10-28T20:28:53.816Z,100238.40
2022-10-28T20:31:55.557Z,100235.65
2022-10-28T20:34:57.232Z,100236.91
2022-10-28T20:37:59.275Z,100236.35
2022-10-28T20:41:01.034Z,100241.39
2022-10-28T20:44:03.112Z,100241.42
2022-10-28T20:47:05.120Z,100243.85
2022-10-28T20:50:07.817Z,100243.35
2022-10-28T20:53:09.449Z,100247.45
2022-10-28T20:56:24.058Z,100253.67
2022-10-28T20:59:25.721Z,100250.62
2022-10-28T21:02:27.937Z,100245.48
2022-10-28T21:05:31.537Z,100250.38
2022-10-28T21:08:33.174Z,100249.45
2022-10-28T21:11:35.415Z,100252.63
2022-10-28T21:14:37.161Z,100249.84
2022-10-28T21:17:39.094Z,100249.61
2022-10-28T21:20:40.763Z,100244.90
2022-10-28T21:23:42.511Z,100242.26
2022-10-28T21:26:47.202Z,100239.02
2022-10-28T21:29:51.608Z,100237.36
2022-10-28T21:32:53.922Z,100232.70
2022-10-28T21:36:00.697Z,100230.80
2022-10-28T21:39:02.387Z,100228.07
2022-10-28T21:42:04.250Z,100221.69
2022-10-28T21:45:07.732Z,100220.35
2022-10-28T21:48:09.352Z,100219.91
2022-10-28T21:51:14.789Z,100217.09
2022-10-28T21:54:18.669Z,100214.30
2022-10-28T21:57:20.569Z,100214.40
2022-10-28T22:00:22.236Z,100205.79
2022-10-28T22:03:23.944Z,100210.94
2022-10-28T22:06:25.740Z,100212.38
2022-10-28T22:09:27.302Z,100212.78
2022-10-28T22:12:29.910Z,100205.81
2022-10-28T22:15:31.745Z,100203.64
2022-10-28T22:18:34.831Z,100200.09
2022-10-28T22:21:40.391Z,100197.17
2022-10-28T22:24:42.104Z,100197.02
2022-10-28T22:27:45.014Z,100200.03
2022-10-28T22:30:46.628Z,100199.79
2022-10-28T22:33:48.550Z,100200.53
2022-10-28T22:36:50.405Z,100203.86
2022-10-28T22:39:52.032Z,100196.33
2022-10-28T22:42:53.782Z,100193.68
2022-10-28T22:45:57.042Z,100195.16
2022-10-28T22:48:58.881Z,100189.64
2022-10-28T22:52:00.791Z,100185.77
2022-10-28T22:55:02.497Z,100190.40
2022-10-28T22:58:04.188Z,100192.06
2022-10-28T23:01:11.603Z,100190.33
2022-10-28T23:04:13.358Z,100187.73
2022-10-28T23:07:34.874Z,100179.71
2022-10-28T23:10:50.737Z,100176.20
2022-10-28T23:13:58.354Z,100177.86
2022-10-28T23:17:00.020Z,100179.69
2022-10-28T23:20:02.132Z,100182.19
2022-10-28T23:23:04.191Z,100178.67
2022-10-28T23:26:07.139Z,100176.98
2022-10-28T23:29:08.831Z,100177.75
2022-10-28T23:32:10.714Z,100179.15
2022-10-28T23:35:12.350Z,100178.20
2022-10-28T23:38:16.533Z,100172.69
2022-10-28T23:41:20.902Z,100172.54
2022-10-28T23:44:23.094Z,100172.05
2022-10-28T23:47:24.701Z,100166.54
2022-10-28T23:50:26.483Z,100161.48
2022-10-28T23:53:34.051Z,100157.52
2022-10-28T23:56:35.672Z,100155.95
2022-10-28T23:59:37.401Z,100158.11
